Time;durP1;ratioP1;P1;durP2;ratioP2;P2;SDS_P1;SDS_P2;PMS_P1;PMS_P2;Temp;Humidity;BMP_temperature;BMP_pressure;BME280_temperature;BME280_humidity;BME280_pressure;Samples;Min_cycle;Max_cycle;Signal;HPM_P1;HPM_P2
2022/06/01 00:00:57;;;;;;;3.72;1.07;;;;;;;15.56;83.08;97885.41;1641611;85;44214;-83
2022/06/01 00:03:25;;;;;;;2.55;1.05;;;;;;;15.66;83.36;97887.47;1640970;86;28097;-83
2022/06/01 00:05:54;;;;;;;1.85;1.12;;;;;;;15.71;83.52;97887.35;1638451;85;28086;-83
2022/06/01 00:08:22;;;;;;;1.15;0.95;;;;;;;15.76;83.58;97885.60;1641442;85;28094;-88
2022/06/01 00:10:52;;;;;;;2.50;0.90;;;;;;;15.79;83.71;97879.52;1636787;86;28249;-87
2022/06/01 00:13:19;;;;;;;2.02;1.17;;;;;;;15.85;83.78;97880.23;1638644;86;28089;-84
2022/06/01 00:15:46;;;;;;;1.62;1.10;;;;;;;15.90;83.94;97880.59;1644450;86;28099;-84
2022/06/01 00:18:15;;;;;;;1.02;0.90;;;;;;;15.96;84.14;97877.00;1639528;86;28466;-82
2022/06/01 00:20:43;;;;;;;1.30;1.20;;;;;;;16.01;84.28;97880.00;1646502;86;28098;-84
2022/06/01 00:23:10;;;;;;;1.50;1.20;;;;;;;16.02;84.28;97876.38;1639722;86;28494;-83
2022/06/01 00:25:37;;;;;;;1.62;1.20;;;;;;;16.07;84.37;97883.34;1607482;87;28105;-87
2022/06/01 00:28:07;;;;;;;4.28;1.10;;;;;;;16.12;84.45;97878.42;1605406;87;28047;-84
2022/06/01 00:30:34;;;;;;;3.17;1.30;;;;;;;16.18;84.51;97879.12;1617656;86;28086;-84
2022/06/01 00:33:03;;;;;;;1.77;1.05;;;;;;;16.21;84.53;97880.95;1634873;85;28076;-83
2022/06/01 00:35:32;;;;;;;1.55;1.25;;;;;;;16.25;84.67;97884.96;1639401;86;28112;-84
2022/06/01 00:37:59;;;;;;;3.10;1.40;;;;;;;16.27;84.86;97884.30;1657435;84;28066;-83
2022/06/01 00:40:28;;;;;;;1.30;1.10;;;;;;;16.26;84.94;97885.27;1627499;86;28145;-83
2022/06/01 00:42:58;;;;;;;3.15;1.40;;;;;;;16.17;84.95;97886.70;1636430;86;28039;-83
2022/06/01 00:45:27;;;;;;;3.02;1.30;;;;;;;16.09;85.09;97886.67;1627972;86;28054;-87
2022/06/01 00:47:53;;;;;;;2.83;2.12;;;;;;;16.05;85.44;97891.41;1601376;87;28197;-84
2022/06/01 00:50:23;;;;;;;3.37;1.70;;;;;;;16.07;85.75;97898.69;1629761;86;28072;-82
2022/06/01 00:52:53;;;;;;;5.12;2.00;;;;;;;16.11;86.06;97907.95;1636195;86;28100;-82
2022/06/01 00:55:22;;;;;;;4.17;1.87;;;;;;;16.17;86.25;97909.98;1644005;85;28164;-83
2022/06/01 00:57:52;;;;;;;2.70;2.20;;;;;;;16.16;86.36;97916.23;1630194;86;28117;-88
2022/06/01 01:00:25;;;;;;;3.42;2.40;;;;;;;16.15;86.54;97926.45;1657494;84;28100;-83
2022/06/01 01:02:55;;;;;;;5.92;2.20;;;;;;;16.16;86.77;97942.64;1658549;84;28171;-83
2022/06/01 01:05:22;;;;;;;;;;;;;;;16.17;87.02;97949.58;1664863;84;28127;-84
2022/06/01 01:07:55;;;;;;;;;;;;;;;16.16;87.20;97955.00;1664393;84;25121;-87
2022/06/01 01:10:21;;;;;;;;;;;;;;;16.11;87.27;97968.67;1664145;84;20246;-88
2022/06/01 01:13:04;;;;;;;;;;;;;;;16.00;87.30;97973.35;1665211;84;20783;-82
2022/06/01 01:15:34;;;;;;;;;;;;;;;15.89;87.38;97975.25;1664322;84;22074;-82
2022/06/01 01:18:01;;;;;;;;;;;;;;;15.85;87.66;97973.07;1663870;84;25826;-84
2022/06/01 01:20:28;;;;;;;;;;;;;;;15.82;88.02;97971.55;1663543;84;24492;-84
2022/06/01 01:23:12;;;;;;;;;;;;;;;15.83;88.49;97973.70;1662863;84;20214;-84
2022/06/01 01:25:42;;;;;;;;;;;;;;;15.81;88.92;97971.72;1612768;87;25116;-82
2022/06/01 01:28:07;;;;;;;;;;;;;;;15.74;89.37;97968.85;1649714;85;22001;-87
2022/06/01 01:30:40;;;;;;;;;;;;;;;15.68;89.73;97975.21;1662102;84;26081;-82
2022/06/01 01:33:09;;;;;;;;;;;;;;;15.64;90.14;97981.78;1663137;84;25353;-88
2022/06/01 01:35:36;;;;;;;;;;;;;;;15.60;90.59;97981.74;1666883;84;20317;-83
2022/06/01 01:38:06;;;;;;;;;;;;;;;15.58;91.07;97973.14;1663175;84;25639;-83
2022/06/01 01:40:34;;;;;;;;;;;;;;;15.58;91.56;97975.78;1665859;84;21520;-82
2022/06/01 01:43:01;;;;;;;;;;;;;;;15.57;92.03;97973.63;1665240;84;26079;-87
2022/06/01 01:45:29;;;;;;;;;;;;;;;15.56;92.40;97974.59;1664713;84;25369;-84
2022/06/01 01:47:55;;;;;;;;;;;;;;;15.54;92.76;97973.94;1662674;84;20259;-82
2022/06/01 01:50:21;;;;;;;;;;;;;;;15.55;93.14;97964.22;1666256;84;20592;-82
2022/06/01 01:52:47;;;;;;;;;;;;;;;15.55;93.53;97970.81;1661922;84;22149;-82
2022/06/01 01:55:18;;;;;;;;;;;;;;;15.51;93.83;97967.59;1663386;85;26084;-83
2022/06/01 01:57:49;;;;;;;;;;;;;;;15.46;94.18;97983.87;1663834;84;24519;-87
2022/06/01 02:00:17;;;;;;;;;;;;;;;15.38;94.60;97975.85;1666540;84;20210;-83
2022/06/01 02:03:02;;;;;;;;;;;;;;;15.29;95.03;97987.30;1662088;84;25167;-84
2022/06/01 02:08:38;;;;;;;;;;;;;;;15.14;96.52;97994.53;1663085;85;25709;-82
2022/06/01 02:13:56;;;;;;;;;;;;;;;14.98;98.53;97996.48;1665315;84;20221;-82
2022/06/01 02:16:27;;;;;;;;;;;;;;;14.90;99.52;98005.58;1665394;84;25739;-83
2022/06/01 02:18:54;;;;;;;;;;;;;;;14.88;100.00;98006.23;1665065;84;22084;-84
2022/06/01 02:21:24;;;;;;;;;;;;;;;14.88;100.00;98017.60;1661899;84;27562;-84
2022/06/01 02:23:50;;;;;;;;;;;;;;;14.87;100.00;98017.25;1664397;84;24482;-82
2022/06/01 02:26:18;;;;;;;;;;;;;;;14.86;100.00;98008.17;1664342;84;20485;-83
2022/06/01 02:28:46;;;;;;;;;;;;;;;14.83;100.00;98013.25;1666359;85;24977;-84
2022/06/01 02:31:15;;;;;;;;;;;;;;;14.85;100.00;98008.65;1666613;85;22798;-83
2022/06/01 02:33:48;;;;;;;;;;;;;;;14.88;100.00;97998.33;1663488;84;26115;-84
2022/06/01 02:36:17;;;;;;;;;;;;;;;14.81;100.00;97997.23;1665878;85;25233;-84
2022/06/01 02:38:45;;;;;;;;;;;;;;;14.87;100.00;98001.93;1665475;84;20227;-83
2022/06/01 02:43:56;;;;;;;;;;;;;;;15.05;100.00;98021.28;1665581;84;23411;-85
2022/06/01 02:46:30;;;;;;;;;;;;;;;15.11;100.00;98023.31;1667033;84;25965;-86
2022/06/01 02:48:57;;;;;;;;;;;;;;;15.09;100.00;98018.69;1665412;84;23919;-88
2022/06/01 02:51:26;;;;;;;;;;;;;;;15.10;100.00;98009.81;1666162;84;20289;-85
2022/06/01 02:53:56;;;;;;;;;;;;;;;15.16;100.00;98009.23;1665646;84;25013;-88
2022/06/01 02:56:24;;;;;;;;;;;;;;;15.18;100.00;98009.90;1666462;85;22744;-86
2022/06/01 02:58:52;;;;;;;;;;;;;;;15.08;100.00;98007.80;1664691;84;26140;-85
2022/06/01 03:01:27;;;;;;;;;;;;;;;14.96;100.00;97998.41;1663454;85;24618;-85
2022/06/01 03:03:53;;;;;;;;;;;;;;;14.95;100.00;98005.97;1663618;85;20258;-86
2022/06/01 03:06:19;;;;;;;;;;;;;;;14.89;100.00;97995.52;1665370;85;20209;-85
2022/06/01 03:08:51;;;;;;;;;;;;;;;14.75;100.00;97990.73;1666107;84;22133;-85
2022/06/01 03:11:17;;;;;;;;;;;;;;;14.61;100.00;97992.52;1663635;84;25993;-84
2022/06/01 03:13:45;;;;;;;;;;;;;;;14.56;100.00;97995.56;1666643;84;20252;-84
2022/06/01 03:16:10;;;;;;;;;;;;;;;14.63;100.00;98010.31;1663604;84;20222;-88
2022/06/01 03:18:39;;;;;;;;;;;;;;;14.82;100.00;98018.66;1667102;84;20252;-86
2022/06/01 03:21:13;;;;;;;;;;;;;;;14.99;100.00;98021.38;1665836;84;21980;-86
2022/06/01 03:23:40;;;;;;;;;;;;;;;15.13;100.00;98029.28;1664587;85;26012;-86
2022/06/01 03:26:06;;;;;;;;;;;;;;;15.19;100.00;98012.88;1666264;84;24736;-88
2022/06/01 03:28:32;;;;;;;;;;;;;;;15.13;100.00;98006.88;1667568;84;20268;-88
2022/06/01 03:31:05;;;;;;;;;;;;;;;15.05;100.00;97997.56;1667512;84;20728;-85
2022/06/01 03:33:31;;;;;;;;;;;;;;;14.88;100.00;97987.30;1664658;84;21950;-85
2022/06/01 03:35:59;;;;;;;;;;;;;;;14.70;100.00;97976.34;1665114;84;26041;-85
2022/06/01 03:38:25;;;;;;;;;;;;;;;14.59;100.00;97981.30;1655771;85;24449;-85
2022/06/01 03:40:57;;;;;;;;;;;;;;;14.54;100.00;97991.42;1654917;85;20576;-85
2022/06/01 03:43:22;;;;;;;;;;;;;;;14.58;100.00;98001.53;1653750;86;25211;-85
2022/06/01 03:45:58;;;;;;;;;;;;;;;14.71;100.00;98005.66;1653669;86;20376;-85
2022/06/01 03:48:27;;;;;;;;;;;;;;;14.68;100.00;97994.91;1654084;86;26003;-85
2022/06/01 03:50:53;;;;;;;;;;;;;;;14.61;100.00;98001.74;1653116;86;25145;-85
2022/06/01 03:53:19;;;;;;;;;;;;;;;14.67;100.00;97998.55;1653158;86;20300;-86
2022/06/01 03:55:45;;;;;;;;;;;;;;;14.65;100.00;97995.20;1652977;85;24944;-84
2022/06/01 03:58:13;;;;;;;;;;;;;;;14.61;100.00;97997.31;1650748;86;20302;-87
2022/06/01 04:00:39;;;;;;;;;;;;;;;14.64;100.00;98007.55;1654426;86;26001;-84
2022/06/01 04:03:05;;;;;;;;;;;;;;;14.68;100.00;98004.61;1654784;85;23868;-84
2022/06/01 04:05:33;;;;;;;;;;;;;;;14.75;100.00;97997.32;1653508;85;20437;-84
2022/06/01 04:07:59;;;;;;;;;;;;;;;14.75;100.00;97998.64;1653120;86;24953;-88
2022/06/01 04:10:25;;;;;;;;;;;;;;;14.82;100.00;98014.70;1653881;85;20827;-87
2022/06/01 04:12:50;;;;;;;;;;;;;;;15.02;100.00;98005.74;1654142;85;21749;-84
2022/06/01 04:15:19;;;;;;;;;;;;;;;15.04;100.00;97995.41;1633663;86;20253;-86
2022/06/01 04:17:45;;;;;;;;;;;;;;;14.94;100.00;97999.06;1652316;86;20268;-86
2022/06/01 04:20:12;;;;;;;;;;;;;;;14.87;100.00;97996.17;1652741;86;20682;-88
2022/06/01 04:22:39;;;;;;;;;;;;;;;14.84;100.00;97999.08;1654461;86;22218;-86
2022/06/01 04:25:06;;;;;;;;;;;;;;;14.99;100.00;98016.11;1655353;86;26699;-86
2022/06/01 04:27:32;;;;;;;;;;;;;;;15.15;100.00;98023.39;1652133;86;24399;-85
2022/06/01 04:29:57;;;;;;;;;;;;;;;15.28;100.00;98015.95;1653717;86;20868;-85
2022/06/01 04:32:26;;;;;;;;;;;;;;;15.37;100.00;98012.45;1656136;84;20230;-85
2022/06/01 04:34:52;;;;;;;;;;;;;;;15.46;100.00;98022.11;1652009;86;22041;-87
2022/06/01 04:37:36;;;;;;;;;;;;;;;15.54;100.00;98019.27;1654760;84;22028;-87
2022/06/01 04:40:03;;;;;;;;;;;;;;;15.54;100.00;98020.09;1662015;85;24458;-87
2022/06/01 04:42:29;;;;;;;;;;;;;;;15.48;100.00;98016.20;1662281;84;20286;-85
2022/06/01 04:45:15;;;;;;;;;;;;;;;15.38;100.00;98019.87;1661537;85;21729;-84
2022/06/01 04:47:41;;;;;;;;;;;;;;;15.29;100.00;98021.57;1661732;84;22255;-87
2022/06/01 04:50:08;;;;;;;;;;;;;;;15.18;100.00;98014.34;1661467;85;26065;-85
2022/06/01 04:52:33;;;;;;;;;;;;;;;15.08;100.00;98007.80;1661660;85;24469;-84
2022/06/01 04:55:01;;;;;;;;;;;;;;;15.01;100.00;98003.59;1661407;84;20258;-83
2022/06/01 04:57:27;;;;;;;;;;;;;;;14.97;100.00;98002.72;1661839;85;25015;-84
2022/06/01 04:59:53;;;;;;;;;;;;;;;14.94;100.00;97999.91;1662039;84;21947;-83
2022/06/01 05:02:19;;;;;;;;;;;;;;;14.96;100.00;97994.47;1661037;84;21181;-87
2022/06/01 05:04:46;;;;;;;;;;;;;;;15.06;100.00;97997.40;1659843;84;20833;-83
2022/06/01 05:07:17;;;;;;;;;;;;;;;15.11;100.00;97993.52;1662249;84;20599;-83
2022/06/01 05:09:52;;;;;;;;;;;;;;;15.13;100.00;97995.50;1662068;85;25010;-83
2022/06/01 05:12:18;;;;;;;;;;;;;;;15.21;100.00;97995.61;1662486;84;22176;-84
2022/06/01 05:14:44;;;;;;;;;;;;;;;15.32;100.00;97989.66;1662089;86;21022;-83
2022/06/01 05:17:24;;;;;;;;;;;;;;;15.33;100.00;97987.82;1660280;85;20831;-83
2022/06/01 05:19:50;;;;;;;;;;;;;;;15.29;100.00;97984.66;1607774;86;20450;-83
2022/06/01 05:22:16;;;;;;;;;;;;;;;15.32;100.00;97980.91;1613601;87;20262;-85
2022/06/01 05:24:44;;;;;;;;;;;;;;;15.31;100.00;97984.04;1661421;84;20286;-85
2022/06/01 05:27:09;;;;;;;;;;;;;;;15.34;100.00;97974.50;1660568;84;26173;-86
2022/06/01 05:29:35;;;;;;;;;;;;;;;15.40;100.00;97973.08;1661855;85;20824;-84
2022/06/01 05:32:02;;;;;;;;;;;;;;;15.49;100.00;97978.80;1662226;86;20328;-84
2022/06/01 05:34:30;;;;;;;;;;;;;;;15.59;100.00;97980.91;1661233;85;25034;-84
2022/06/01 05:36:56;;;;;;;;;;;;;;;15.64;100.00;97980.45;1661624;84;23181;-84
2022/06/01 05:39:25;;;;;;;;;;;;;;;15.69;100.00;97983.47;1653226;84;50861;-84
2022/06/01 05:41:55;;;;;;;;;;;;;;;15.71;100.00;97978.37;1654498;86;24470;-84
2022/06/01 05:44:24;;;;;;;;;;;;;;;15.70;100.00;97978.55;1632871;86;20673;-84
2022/06/01 05:47:00;;;;;;;;;;;;;;;15.77;100.00;97984.85;1653025;86;25218;-88
2022/06/01 05:49:26;;;;;;;;;;;;;;;15.82;100.00;97981.27;1652544;86;21756;-83
2022/06/01 05:51:52;;;;;;;;;;;;;;;15.86;100.00;97985.29;1654014;86;21581;-86
2022/06/01 05:54:19;;;;;;;;;;;;;;;15.87;100.00;97986.95;1652335;85;21031;-83
2022/06/01 05:56:45;;;;;;;;;;;;;;;15.81;100.00;97990.20;1653133;85;20215;-87
2022/06/01 05:59:11;;;;;;;;;;;;;;;15.79;100.00;98000.05;1656419;85;25080;-85
2022/06/01 06:01:39;;;;;;;;;;;;;;;15.84;100.00;98001.75;1652992;85;33825;-84
2022/06/01 06:04:05;;;;;;;;;;;;;;;15.92;100.00;98006.29;1651346;85;26078;-84
2022/06/01 06:06:31;;;;;;;;;;;;;;;16.03;100.00;98008.22;1654000;86;25379;-84
2022/06/01 06:09:00;;;;;;;;;;;;;;;16.13;100.00;98012.91;1653685;85;20391;-83
2022/06/01 06:11:28;;;;;;;;;;;;;;;16.25;100.00;98010.38;1653420;86;24982;-84
2022/06/01 06:13:58;;;;;;;;;;;;;;;16.35;100.00;98011.61;1654929;86;22006;-88
2022/06/01 06:16:26;;;;;;;;;;;;;;;16.49;100.00;98019.45;1654370;86;26045;-84
2022/06/01 06:18:56;;;;;;;;;;;;;;;16.60;100.00;98015.27;1654679;86;24447;-84
2022/06/01 06:21:20;;;;;;;;;;;;;;;16.71;100.00;98013.70;1654859;85;20309;-88
2022/06/01 06:23:46;;;;;;;;;;;;;;;16.86;100.00;98016.58;1653285;85;20903;-85
2022/06/01 06:26:19;;;;;;;;;;;;;;;16.99;100.00;98013.86;1651420;86;20249;-84
2022/06/01 06:28:46;;;;;;;;;;;;;;;17.07;100.00;98010.44;1652840;85;27585;-84
2022/06/01 06:31:17;;;;;;;;;;;;;;;17.08;100.00;98010.75;1652769;85;24598;-87
2022/06/01 06:33:43;;;;;;;;;;;;;;;17.12;100.00;98018.23;1611161;88;20319;-84
2022/06/01 06:36:11;;;;;;;;;;;;;;;17.23;100.00;98014.48;1655069;86;20779;-84
2022/06/01 06:38:37;;;;;;;;;;;;;;;17.30;100.00;98020.77;1655715;86;23697;-84
2022/06/01 06:41:04;;;;;;;;;;;;;;;17.42;100.00;98026.60;1661321;86;26147;-84
2022/06/01 06:43:33;;;;;;;;;;;;;;;17.45;100.00;98027.13;1660257;85;24555;-83
2022/06/01 06:46:04;;;;;;;;;;;;;;;17.49;100.00;98028.95;1659726;86;20316;-88
2022/06/01 06:48:30;;;;;;;;;;;;;;;17.54;100.00;98033.27;1600116;89;24981;-87
2022/06/01 06:50:56;;;;;;;;;;;;;;;17.56;100.00;98031.30;1657518;85;20844;-87
2022/06/01 06:53:24;;;;;;;;;;;;;;;17.56;100.00;98032.63;1653932;85;26118;-87
2022/06/01 06:55:50;;;;;;;;;;;;;;;17.54;100.00;98038.06;1656150;86;24546;-88
2022/06/01 06:58:16;;;;;;;;;;;;;;;17.58;100.00;98043.86;1656880;86;20438;-84
2022/06/01 07:00:45;;;;;;;;;;;;;;;17.70;100.00;98051.04;1658252;85;25088;-84
2022/06/01 07:03:12;;;;;;;;;;;;;;;17.85;100.00;98043.63;1655600;85;21977;-84
2022/06/01 07:08:25;;;;;;;;;;;;;;;17.96;100.00;98049.94;1655996;86;24487;-83
2022/06/01 07:10:53;;;;;;;;;;;;;;;18.05;100.00;98052.62;1654412;85;20273;-87
2022/06/01 07:13:19;;;;;;;;;;;;;;;18.11;100.00;98053.30;1652483;85;25030;-87
2022/06/01 07:15:45;;;;;;;;;;;;;;;18.12;100.00;98045.66;1656424;86;20895;-83
2022/06/01 07:18:11;;;;;;;;;;;;;;;18.10;100.00;98051.63;1656701;86;21075;-82
2022/06/01 07:20:37;;;;;;;;;;;;;;;18.04;100.00;98048.31;1656901;86;24480;-82
2022/06/01 07:23:03;;;;;;;;;;;;;;;17.94;100.00;98051.11;1658773;86;20229;-83
2022/06/01 07:25:28;;;;;;;;;;;;;;;17.90;100.00;98059.86;1654960;86;20237;-84
2022/06/01 07:27:59;;;;;;;;;;;;;;;17.90;100.00;98054.56;1657530;86;20249;-83
2022/06/01 07:30:25;;;;;;;;;;;;;;;17.89;100.00;98058.19;1655522;86;26133;-87
2022/06/01 07:32:51;;;;;;;;;;;;;;;17.84;100.00;98057.85;1657264;86;20284;-87
2022/06/01 07:35:17;;;;;;;;;;;;;;;17.81;100.00;98057.36;1657500;86;21102;-87
2022/06/01 07:43:14;;;;;;;;;;;;;;;17.91;100.00;98052.74;1655083;86;25643;-85
2022/06/01 07:45:44;;;;;;;;;;;;;;;17.92;100.00;98049.94;1656014;85;24645;-84
2022/06/01 07:48:11;;;;;;;;;;;;;;;17.89;100.00;98047.61;1654237;85;20223;-84
2022/06/01 07:50:40;;;;;;;;;;;;;;;17.92;100.00;98049.94;1655415;86;24649;-87
2022/06/01 07:53:07;;;;;;;;;;;;;;;17.95;100.00;98050.93;1631116;88;22050;-82
2022/06/01 07:55:34;;;;;;;;;;;;;;;17.94;100.00;98049.30;1627734;87;25989;-87
2022/06/01 07:58:04;;;;;;;;;;;;;;;17.97;100.00;98046.80;1630746;86;25385;-87
2022/06/01 08:00:30;;;;;;;;;;;;;;;18.10;100.00;98050.31;1627270;86;20150;-87
2022/06/01 08:02:56;;;;;;;;;;;;;;;18.17;100.00;98046.82;1655247;86;25642;-85
2022/06/01 08:05:22;;;;;;;;;;;;;;;18.24;100.00;98049.65;1657280;86;20265;-83
2022/06/01 08:07:48;;;;;;;;;;;;;;;18.31;100.00;98059.93;1653161;85;26033;-87
2022/06/01 08:10:18;;;;;;;;;;;;;;;18.38;100.00;98047.16;1661973;84;24611;-88
2022/06/01 08:13:06;;;;;;;;;;;;;;;18.47;100.00;98051.98;1665748;85;20240;-88
2022/06/01 08:15:39;;;;;;;;;;;;;;;18.54;100.00;98053.02;1664190;86;25038;-88
2022/06/01 08:18:12;;;;;;;;;;;;;;;18.62;100.00;98059.62;1666652;85;22106;-88
2022/06/01 08:20:38;;;;;;;;;;;;;;;18.70;100.00;98066.25;1665096;84;26035;-87
2022/06/01 08:23:05;;;;;;;;;;;;;;;18.83;100.00;98071.52;1664171;85;20245;-88
2022/06/01 08:25:32;;;;;;;;;;;;;;;18.83;100.00;98063.56;1663961;86;20198;-88
2022/06/01 08:27:58;;;;;;;;;;;;;;;18.87;100.00;98064.91;1664613;85;25024;-88
2022/06/01 08:30:25;;;;;;;;;;;;;;;18.95;100.00;98062.23;1664388;85;21970;-88
2022/06/01 08:32:56;;;;;;;;;;;;;;;19.05;100.00;98059.72;1664895;85;26177;-83
2022/06/01 08:35:24;;;;;;;;;;;;;;;19.14;100.00;98061.87;1664477;86;24424;-83
2022/06/01 08:37:57;;;;;;;;;;;;;;;19.21;100.00;98065.47;1664436;86;20443;-83
2022/06/01 08:40:24;;;;;;;;;;;;;;;19.26;100.00;98071.09;1656663;86;24935;-84
2022/06/01 08:43:01;;;;;;;;;;;;;;;19.33;100.00;98067.27;1656870;85;22102;-85
2022/06/01 08:45:28;;;;;;;;;;;;;;;19.41;100.00;98071.23;1655734;86;25707;-85
2022/06/01 08:48:00;;;;;;;;;;;;;;;19.52;100.00;98070.39;1658156;86;24447;-88
2022/06/01 08:50:31;;;;;;;;;;;;;;;19.59;100.00;98064.70;1656205;86;20175;-88
2022/06/01 08:52:59;;;;;;;;;;;;;;;19.63;100.00;98066.03;1653273;85;24993;-84
2022/06/01 08:55:26;;;;;;;;;;;;;;;19.70;100.00;98064.81;1657071;85;22063;-83
2022/06/01 08:58:00;;;;;;;;;;;;;;;19.78;100.00;98063.96;1654503;86;26062;-83
2022/06/01 09:00:28;;;;;;;;;;;;;;;19.90;100.00;98072.70;1656123;85;24450;-85
2022/06/01 09:03:08;;;;;;;;;;;;;;;20.03;100.00;98070.78;1653874;85;20214;-84
2022/06/01 09:05:52;;;;;;;;;;;;;;;20.14;100.00;98074.36;1657066;85;25041;-85
2022/06/01 09:08:29;;;;;;;;;;;;;;;20.26;100.00;98082.75;1657082;86;22150;-88
2022/06/01 09:11:03;;;;;;;;;;;;;;;20.31;100.00;98078.59;1652267;86;26201;-88
2022/06/01 09:13:42;;;;;;;;;;;;;;;20.38;100.00;98084.04;1654481;86;24472;-88
2022/06/01 09:16:12;;;;;;;;;;;;;;;20.42;100.00;98070.70;1631052;87;20323;-84
2022/06/01 09:18:40;;;;;;;;;;;;;;;20.47;100.00;98078.97;1631256;87;25030;-88
2022/06/01 09:23:52;;;;;;;;;;;;;;;20.58;100.00;98084.38;1594514;89;26103;-83
2022/06/01 09:26:31;;;;;;;;;;;;;;;20.64;100.00;98084.98;1621092;87;24487;-83
2022/06/01 09:28:56;;;;;;;;;;;;;;;20.69;100.00;98087.44;1621666;86;20295;-88
2022/06/01 09:31:24;;;;;;;;;;;;;;;20.74;100.00;98089.55;1652776;86;25214;-88
2022/06/01 09:33:50;;;;;;;;;;;;;;;20.81;100.00;98082.52;1650723;86;22235;-88
2022/06/01 09:36:18;;;;;;;;;;;;;;;20.91;100.00;98091.06;1653577;86;21060;-88
2022/06/01 09:38:49;;;;;;;;;;;;;;;21.02;100.00;98085.31;1655430;84;24575;-83
2022/06/01 09:41:21;;;;;;;;;;;;;;;21.10;100.00;98081.25;1664258;84;20387;-83
2022/06/01 09:43:52;;;;;;;;;;;;;;;21.12;100.00;98084.53;1666016;84;25001;-85
2022/06/01 09:46:33;;;;;;;;;;;;;;;21.11;100.00;98089.53;1663602;84;22015;-84
2022/06/01 09:48:59;;;;;;;;;;;;;;;21.13;100.00;98083.53;1664347;84;26639;-85
2022/06/01 09:51:23;;;;;;;;;;;;;;;21.13;100.00;98080.87;1665335;84;24582;-84
2022/06/01 09:53:52;;;;;;;;;;;;;;;21.24;100.00;98087.61;1665983;84;20242;-83
2022/06/01 09:56:19;;;;;;;;;;;;;;;21.29;100.00;98084.72;1658806;85;24966;-84
2022/06/01 10:07:08;;;;;;;;;;;;;;;21.58;100.00;98091.88;1664773;84;20265;-83
2022/06/01 10:09:36;;;;;;;;;;;;;;;21.72;100.00;98091.53;1662423;84;24960;-89
2022/06/01 10:12:16;;;;;;;;;;;;;;;21.71;100.00;98089.38;1666640;84;22182;-83
2022/06/01 10:14:44;;;;;;;;;;;;;;;21.80;100.00;98087.95;1661195;84;26016;-85
2022/06/01 10:17:12;;;;;;;;;;;;;;;21.89;100.00;98087.65;1632413;86;24511;-89
2022/06/01 10:19:45;;;;;;;;;;;;;;;21.96;99.82;98093.09;1633187;86;20304;-89
2022/06/01 10:22:29;;;;;;;;;;;;;;;22.06;99.33;98099.78;1635103;86;25049;-84
2022/06/01 10:24:56;;;;;;;;;;;;;;;22.06;97.44;98096.28;1632041;87;22075;-84
2022/06/01 10:27:24;;;;;;;;;;;;;;;22.06;95.75;98101.11;1607691;87;26342;-84
2022/06/01 10:29:58;;;;;;;;;;;;;;;22.10;94.58;98093.05;1610352;88;24498;-83
2022/06/01 10:32:26;;;;;;;;;;;;;;;22.14;93.67;98088.19;1635739;86;20152;-83
2022/06/01 10:34:55;;;;;;;;;;;;;;;22.20;91.93;98095.44;1607776;87;25048;-83
2022/06/01 10:37:29;;;;;;;;;;;;;;;22.23;90.23;98095.05;1609740;88;21984;-82
2022/06/01 10:39:57;;;;;;;;;;;;;;;22.33;89.11;98100.06;1633429;86;26026;-88
2022/06/01 10:45:31;;;;;;;;;;;;;;;22.51;87.89;98096.45;1631384;86;20292;-82
2022/06/01 10:47:58;;;;;;;;;;;;;;;22.60;86.75;98103.81;1626550;86;25058;-84
2022/06/01 10:50:32;;;;;;;;;;;;;;;22.68;86.13;98086.35;1628584;86;21991;-88
2022/06/01 10:53:04;;;;;;;;;;;;;;;22.74;85.16;98094.45;1635734;86;26174;-83
2022/06/01 10:55:31;;;;;;;;;;;;;;;22.79;82.91;98097.36;1630102;85;24519;-84
2022/06/01 10:57:59;;;;;;;;;;;;;;;22.86;82.01;98098.22;1637115;85;20217;-84
2022/06/01 11:00:27;;;;;;;;;;;;;;;22.88;80.90;98093.53;1634386;86;24990;-84
2022/06/01 11:02:55;;;;;;;;;;;;;;;22.97;80.75;98091.53;1639677;85;21957;-84
2022/06/01 11:05:23;;;;;;;;;;;;;;;23.08;80.92;98091.00;1639187;85;26083;-84
2022/06/01 11:07:56;;;;;;;;;;;;;;;23.18;81.00;98092.02;1639130;86;24442;-83
2022/06/01 11:10:33;;;;;;;;;;;;;;;23.18;79.86;98097.36;1632243;86;20351;-84
2022/06/01 11:13:07;;;;;;;;;;;;;;;23.26;79.57;98087.84;1642653;85;24983;-88
2022/06/01 11:15:36;;;;;;;;;;;;;;;23.41;78.96;98093.88;1633274;85;22102;-88
2022/06/01 11:18:04;;;;;;;;;;;;;;;23.57;78.25;98100.78;1640870;85;26106;-83
2022/06/01 11:20:50;;;;;;;;;;;;;;;23.74;78.15;98106.11;1667070;84;24524;-83
2022/06/01 11:23:27;;;;;;;;;;;;;;;23.82;76.74;98101.13;1666939;85;20500;-83
2022/06/01 11:26:05;;;;;;;;;;;;;;;23.77;74.12;98101.73;1669223;84;24988;-83
2022/06/01 11:28:33;;;;;;;;;;;;;;;23.75;72.56;98101.92;1667490;85;21993;-83
2022/06/01 11:31:04;;;;;;;;;;;;;;;23.75;70.80;98097.08;1669542;84;26009;-83
2022/06/01 11:33:34;;;;;;;;;;;;;;;23.84;70.58;98098.55;1669146;85;25229;-84
2022/06/01 11:36:02;;;;;;;;;;;;;;;23.79;68.50;98099.66;1667123;85;20234;-85
2022/06/01 11:38:38;;;;;;;;;;;;;;;23.82;67.34;98097.94;1665717;84;25721;-88
2022/06/01 11:41:06;;;;;;;;;;;;;;;23.76;66.38;98096.06;1667639;85;21983;-88
2022/06/01 11:43:40;;;;;;;;;;;;;;;23.75;65.41;98100.58;1668201;85;26731;-88
2022/06/01 11:46:10;;;;;;;;;;;;;;;23.81;64.63;98095.46;1667714;85;24558;-84
2022/06/01 11:48:38;;;;;;;;;;;;;;;23.83;64.25;98098.27;1668002;84;20223;-83
2022/06/01 11:51:21;;;;;;;;;;;;;;;23.76;63.01;98101.41;1660175;85;25770;-84
2022/06/01 11:54:05;;;;;;;;;;;;;;;23.76;62.45;98093.39;1665715;84;21943;-84
2022/06/01 11:56:35;;;;;;;;;;;;;;;23.83;62.42;98090.75;1666267;84;25979;-84
2022/06/01 11:59:08;;;;;;;;;;;;;;;23.83;61.39;98096.09;1665803;85;24509;-88
2022/06/01 12:01:36;;;;;;;;;;;;;;;23.88;61.05;98093.14;1633262;87;20201;-83
2022/06/01 12:04:13;;;;;;;;;;;;;;;24.00;60.81;98092.05;1606821;88;24986;-83
2022/06/01 12:06:41;;;;;;;;;;;;;;;24.04;60.84;98087.95;1669919;84;21959;-83
2022/06/01 12:09:08;;;;;;;;;;;;;;;23.90;59.99;98091.58;1669631;85;26088;-89
2022/06/01 12:11:40;;;;;;;;;;;;;;;23.86;59.69;98089.83;1666927;84;24414;-88
2022/06/01 12:14:21;;;;;;;;;;;;;;;23.90;59.34;98084.39;1666599;85;20173;-87
2022/06/01 12:16:50;;;;;;;;;;;;;;;24.01;59.02;98088.33;1668704;85;25185;-85
2022/06/01 12:19:19;;;;;;;;;;;;;;;24.02;58.51;98091.33;1667554;85;22048;-84
2022/06/01 12:21:47;;;;;;;;;;;;;;;23.98;58.23;98080.22;1667324;85;26044;-85
2022/06/01 12:30:20;;;;;;;;;;;;;;;24.16;56.88;98082.34;1667954;85;25195;-82
2022/06/01 12:33:00;;;;;;;;;;;;;;;24.28;56.65;98083.91;1664655;85;21956;-83
2022/06/01 12:35:35;;;;;;;;;;;;;;;24.41;56.81;98083.95;1671242;85;26301;-88
2022/06/01 12:38:08;;;;;;;;;;;;;;;24.48;56.71;98088.30;1607959;87;24806;-84
2022/06/01 12:40:34;;;;;;;;;;;;;;;24.36;55.69;98083.23;1636347;86;20465;-85
2022/06/01 12:43:03;;;;;;;;;;;;;;;24.33;55.09;98083.62;1640540;86;20682;-88
2022/06/01 12:45:37;;;;;;;;;;;;;;;24.38;55.15;98082.52;1636608;86;22209;-88
2022/06/01 12:48:07;;;;;;;;;;;;;;;24.43;54.73;98084.59;1637066;86;28124;-82
2022/06/01 12:50:35;;;;;;;;;;;;;;;24.47;54.22;98075.94;1635229;86;24701;-82
2022/06/01 12:53:10;;;;;;;;;;;;;;;24.36;53.74;98089.09;1603300;87;30111;-84
2022/06/01 12:55:36;;;;;;;;;;;;;;;24.15;52.88;98082.02;1633964;86;25199;-83
2022/06/01 12:58:10;;;;;;;;;;;;;;;23.94;52.17;98060.27;1630719;86;20237;-88
2022/06/01 13:00:36;;;;;;;;;;;;;;;23.76;51.90;98071.50;1605630;87;26114;-89
2022/06/01 13:03:04;;;;;;;;;;;;;;;23.59;51.28;98072.86;1610068;87;24443;-83
2022/06/01 13:05:38;;;;;;;;;;;;;;;23.46;50.84;98074.63;1632183;86;25937;-82
2022/06/01 13:08:06;;;;;;;;;;;;;;;23.34;50.37;98079.69;1633961;86;24966;-82
2022/06/01 13:10:33;;;;;;;;;;;;;;;23.30;50.25;98078.41;1612655;88;22016;-88
2022/06/01 13:13:05;;;;;;;;;;;;;;;23.27;49.98;98078.81;1607613;87;26799;-82
2022/06/01 13:15:31;;;;;;;;;;;;;;;23.27;49.82;98080.15;1606802;87;24443;-82
2022/06/01 13:17:59;;;;;;;;;;;;;;;23.24;49.54;98077.85;1607501;88;20745;-84
2022/06/01 13:20:26;;;;;;;;;;;;;;;23.27;49.43;98074.81;1627897;86;25070;-84